Time;durP1;ratioP1;P1;durP2;ratioP2;P2;SDS_P1;SDS_P2;PMS_P1;PMS_P2;Temp;Humidity;BMP_temperature;BMP_pressure;BME280_temperature;BME280_humidity;BME280_pressure;Samples;Min_cycle;Max_cycle;Signal;HPM_P1;HPM_P2
2021/10/29 00:02:04;;;;;;;;;;;;;;;;;;5097619;28;19969;-85
2021/10/29 00:04:29;;;;;;;;;;;;;;;;;;5096899;28;20330;-85
2021/10/29 00:06:54;;;;;;;;;;;;;;;;;;5107800;28;19918;-84
2021/10/29 00:09:19;;;;;;;;;;;;;;;;;;5099281;28;19912;-85
2021/10/29 00:11:44;;;;;;;;;;;;;;;;;;5099636;28;19962;-85
2021/10/29 00:14:10;;;;;;;;;;;;;;;;;;5098186;28;19962;-85
2021/10/29 00:16:35;;;;;;;;;;;;;;;;;;5097588;28;19916;-84
2021/10/29 00:19:00;;;;;;;;;;;;;;;;;;5096803;28;19923;-86
2021/10/29 00:21:26;;;;;;;;;;;;;;;;;;5098068;28;20015;-86
2021/10/29 00:23:51;;;;;;;;;;;;;;;;;;5096358;28;19981;-86
2021/10/29 00:26:17;;;;;;;;;;;;;;;;;;5095579;28;19935;-85
2021/10/29 00:28:42;;;;;;;;;;;;;;;;;;5096934;28;19916;-86
2021/10/29 00:31:07;;;;;;;;;;;;;;;;;;5096883;28;20239;-86
2021/10/29 00:33:32;;;;;;;;;;;;;;;;;;5096938;28;20002;-86
2021/10/29 00:35:58;;;;;;;;;;;;;;;;;;5097222;28;20011;-85
2021/10/29 00:38:24;;;;;;;;;;;;;;;;;;5096136;28;20257;-87
2021/10/29 00:40:49;;;;;;;;;;;;;;;;;;5097832;28;19947;-86
2021/10/29 00:43:15;;;;;;;;;;;;;;;;;;5096121;28;20266;-86
2021/10/29 00:45:40;;;;;;;;;;;;;;;;;;5096504;28;19920;-85
2021/10/29 00:48:06;;;;;;;;;;;;;;;;;;5096883;28;19964;-87
2021/10/29 00:50:32;;;;;;;;;;;;;;;;;;5097620;28;19928;-86
2021/10/29 00:52:57;;;;;;;;;;;;;;;;;;5095741;28;19912;-86
2021/10/29 00:55:23;;;;;;;;;;;;;;;;;;5095706;28;19930;-85
2021/10/29 00:57:50;;;;;;;;;;;;;;;;;;5096068;28;19919;-84
2021/10/29 01:00:16;;;;;;;;;;;;;;;;;;5096171;28;19973;-85
2021/10/29 01:02:41;;;;;;;;;;;;;;;;;;5096204;28;20254;-83
2021/10/29 01:05:06;;;;;;;;;;;;;;;;;;5096885;28;19922;-85
2021/10/29 01:07:32;;;;;;;;;;;;;;;;;;5096811;28;19953;-84
2021/10/29 01:09:57;;;;;;;;;;;;;;;;;;5096936;28;19938;-85
2021/10/29 01:12:23;;;;;;;;;;;;;;;;;;5103805;28;20006;-84
2021/10/29 01:14:55;;;;;;;;;;;;;;;;;;5101244;28;19931;-86
2021/10/29 01:17:20;;;;;;;;;;;;;;;;;;5096441;28;19951;-86
2021/10/29 01:19:49;;;;;;;;;;;;;;;;;;5097326;28;19920;-85
2021/10/29 01:22:14;;;;;;;;;;;;;;;;;;5098811;28;19919;-86
2021/10/29 01:24:40;;;;;;;;;;;;;;;;;;5098255;28;20353;-85
2021/10/29 01:27:12;;;;;;;;;;;;;;;;;;5095703;28;19965;-87
2021/10/29 01:29:38;;;;;;;;;;;;;;;;;;5096149;28;19979;-87
2021/10/29 01:32:04;;;;;;;;;;;;;;;;;;5096987;28;19912;-85
2021/10/29 01:34:30;;;;;;;;;;;;;;;;;;5096520;28;19912;-85
2021/10/29 01:36:55;;;;;;;;;;;;;;;;;;5096331;28;20023;-85
2021/10/29 01:39:20;;;;;;;;;;;;;;;;;;5095368;28;19962;-84
2021/10/29 01:41:45;;;;;;;;;;;;;;;;;;5095626;28;19912;-85
2021/10/29 01:44:13;;;;;;;;;;;;;;;;;;5096490;28;19923;-84
2021/10/29 01:46:38;;;;;;;;;;;;;;;;;;5097243;28;19920;-85
2021/10/29 01:49:03;;;;;;;;;;;;;;;;;;5096966;28;19955;-84
2021/10/29 01:51:28;;;;;;;;;;;;;;;;;;5095641;28;19912;-84
2021/10/29 01:53:54;;;;;;;;;;;;;;;;;;5098241;28;19912;-88
2021/10/29 01:56:19;;;;;;;;;;;;;;;;;;5109616;28;20006;-82
2021/10/29 01:58:45;;;;;;;;;;;;;;;;;;5113982;28;19911;-83
2021/10/29 02:01:11;;;;;;;;;;;;;;;;;;5110348;28;19966;-84
2021/10/29 02:03:36;;;;;;;;;;;;;;;;;;5109849;28;19912;-87
2021/10/29 02:06:02;;;;;;;;;;;;;;;;;;5107138;28;19912;-85
2021/10/29 02:08:27;;;;;;;;;;;;;;;;;;5106965;28;19912;-85
2021/10/29 02:10:53;;;;;;;;;;;;;;;;;;5112438;28;19912;-87
2021/10/29 02:13:19;;;;;;;;;;;;;;;;;;5112883;28;19920;-86
2021/10/29 02:15:44;;;;;;;;;;;;;;;;;;5112011;28;19916;-84
2021/10/29 02:18:10;;;;;;;;;;;;;;;;;;5111445;28;19912;-84
2021/10/29 02:20:35;;;;;;;;;;;;;;;;;;5112109;28;19919;-84
2021/10/29 02:23:00;;;;;;;;;;;;;;;;;;5115565;28;20358;-85
2021/10/29 02:25:26;;;;;;;;;;;;;;;;;;5115381;28;19912;-84
2021/10/29 02:27:51;;;;;;;;;;;;;;;;;;5115888;28;19912;-84
2021/10/29 02:30:16;;;;;;;;;;;;;;;;;;5117616;28;19947;-83
2021/10/29 02:32:42;;;;;;;;;;;;;;;;;;5117003;28;19912;-86
2021/10/29 02:35:07;;;;;;;;;;;;;;;;;;5116790;28;19983;-84
2021/10/29 02:37:32;;;;;;;;;;;;;;;;;;5116769;28;19927;-84
2021/10/29 02:39:57;;;;;;;;;;;;;;;;;;5112739;28;20023;-85
2021/10/29 02:42:23;;;;;;;;;;;;;;;;;;5113248;28;19979;-85
2021/10/29 02:44:48;;;;;;;;;;;;;;;;;;5115198;28;19938;-86
2021/10/29 02:47:13;;;;;;;;;;;;;;;;;;5114073;28;19991;-84
2021/10/29 02:49:39;;;;;;;;;;;;;;;;;;5116096;28;19920;-86
2021/10/29 02:52:05;;;;;;;;;;;;;;;;;;5117719;28;19923;-84
2021/10/29 02:54:30;;;;;;;;;;;;;;;;;;5118307;28;19968;-84
2021/10/29 02:56:56;;;;;;;;;;;;;;;;;;5119413;28;19916;-85
2021/10/29 02:59:21;;;;;;;;;;;;;;;;;;5119696;28;19896;-84
2021/10/29 03:01:46;;;;;;;;;;;;;;;;;;5120927;28;19924;-85
2021/10/29 03:04:11;;;;;;;;;;;;;;;;;;5121227;28;19909;-84
2021/10/29 03:06:37;;;;;;;;;;;;;;;;;;5121119;28;19935;-84
2021/10/29 03:09:03;;;;;;;;;;;;;;;;;;5121095;28;19924;-86
2021/10/29 03:11:28;;;;;;;;;;;;;;;;;;5120602;28;19896;-85
2021/10/29 03:13:53;;;;;;;;;;;;;;;;;;5119841;28;19931;-85
2021/10/29 03:16:19;;;;;;;;;;;;;;;;;;5118040;28;19916;-84
2021/10/29 03:18:44;;;;;;;;;;;;;;;;;;5118457;28;19980;-83
2021/10/29 03:21:10;;;;;;;;;;;;;;;;;;5118050;28;19930;-83
2021/10/29 03:23:35;;;;;;;;;;;;;;;;;;5116441;28;19912;-83
2021/10/29 03:26:01;;;;;;;;;;;;;;;;;;5117841;28;19919;-86
2021/10/29 03:28:26;;;;;;;;;;;;;;;;;;5116749;28;19923;-83
2021/10/29 03:30:51;;;;;;;;;;;;;;;;;;5117222;28;19912;-84
2021/10/29 03:33:17;;;;;;;;;;;;;;;;;;5115752;28;19934;-86
2021/10/29 03:35:42;;;;;;;;;;;;;;;;;;5116416;28;19928;-84
2021/10/29 03:40:49;;;;;;;;;;;;;;;;;;5112426;28;19916;-86
2021/10/29 03:43:27;;;;;;;;;;;;;;;;;;5112937;28;19912;-83
2021/10/29 03:46:03;;;;;;;;;;;;;;;;;;5107653;28;19919;-86
2021/10/29 03:48:39;;;;;;;;;;;;;;;;;;5110536;28;19912;-85
2021/10/29 03:53:36;;;;;;;;;;;;;;;;;;5115802;28;19923;-84
2021/10/29 03:56:03;;;;;;;;;;;;;;;;;;5109159;28;19946;-86
2021/10/29 03:58:28;;;;;;;;;;;;;;;;;;5104306;28;19919;-85
2021/10/29 04:00:54;;;;;;;;;;;;;;;;;;5104591;28;19912;-88
2021/10/29 04:03:19;;;;;;;;;;;;;;;;;;5102822;28;19931;-87
2021/10/29 04:05:45;;;;;;;;;;;;;;;;;;5102317;28;20006;-86
2021/10/29 04:08:10;;;;;;;;;;;;;;;;;;5103303;28;19912;-86
2021/10/29 04:10:40;;;;;;;;;;;;;;;;;;5107974;28;19917;-84
2021/10/29 04:13:09;;;;;;;;;;;;;;;;;;5107075;28;19912;-84
2021/10/29 04:15:37;;;;;;;;;;;;;;;;;;5106090;28;19974;-86
2021/10/29 04:18:02;;;;;;;;;;;;;;;;;;5104480;28;19912;-88
2021/10/29 04:20:27;;;;;;;;;;;;;;;;;;5098365;28;20361;-86
2021/10/29 04:22:52;;;;;;;;;;;;;;;;;;5097923;28;20057;-86
2021/10/29 04:25:18;;;;;;;;;;;;;;;;;;5096947;28;19916;-86
2021/10/29 04:27:45;;;;;;;;;;;;;;;;;;5096317;28;19923;-86
2021/10/29 04:30:16;;;;;;;;;;;;;;;;;;5097187;28;19955;-85
2021/10/29 04:32:41;;;;;;;;;;;;;;;;;;5096235;28;19939;-86
2021/10/29 04:35:07;;;;;;;;;;;;;;;;;;5100797;28;19912;-84
2021/10/29 04:37:33;;;;;;;;;;;;;;;;;;5113783;28;19912;-85
2021/10/29 04:39:58;;;;;;;;;;;;;;;;;;5114040;28;19912;-84
2021/10/29 04:42:23;;;;;;;;;;;;;;;;;;5113863;28;19926;-82
2021/10/29 04:44:49;;;;;;;;;;;;;;;;;;5116561;28;19904;-86
2021/10/29 04:47:14;;;;;;;;;;;;;;;;;;5105035;28;19913;-86
2021/10/29 04:49:39;;;;;;;;;;;;;;;;;;5097400;28;19973;-87
2021/10/29 04:52:05;;;;;;;;;;;;;;;;;;5097465;28;19912;-86
2021/10/29 04:54:31;;;;;;;;;;;;;;;;;;5096400;28;20338;-86
2021/10/29 04:56:56;;;;;;;;;;;;;;;;;;5096433;28;19916;-85
2021/10/29 04:59:22;;;;;;;;;;;;;;;;;;5095601;28;20265;-86
2021/10/29 05:01:47;;;;;;;;;;;;;;;;;;5096616;28;19913;-87
2021/10/29 05:04:13;;;;;;;;;;;;;;;;;;5095493;28;19916;-87
2021/10/29 05:06:39;;;;;;;;;;;;;;;;;;5096212;28;20357;-86
2021/10/29 05:09:04;;;;;;;;;;;;;;;;;;5096408;28;19912;-85
2021/10/29 05:11:29;;;;;;;;;;;;;;;;;;5097558;28;19923;-87
2021/10/29 05:13:54;;;;;;;;;;;;;;;;;;5096490;28;20346;-84
2021/10/29 05:16:20;;;;;;;;;;;;;;;;;;5095810;28;19916;-86
2021/10/29 05:18:45;;;;;;;;;;;;;;;;;;5101151;28;19918;-88
2021/10/29 05:21:13;;;;;;;;;;;;;;;;;;5104918;28;20284;-87
2021/10/29 05:23:39;;;;;;;;;;;;;;;;;;5101227;28;19978;-86
2021/10/29 05:26:04;;;;;;;;;;;;;;;;;;5100196;28;19928;-86
2021/10/29 05:28:30;;;;;;;;;;;;;;;;;;5099542;28;19912;-86
2021/10/29 05:30:55;;;;;;;;;;;;;;;;;;5096424;28;19912;-87
2021/10/29 05:33:20;;;;;;;;;;;;;;;;;;5096148;28;19912;-87
2021/10/29 05:35:46;;;;;;;;;;;;;;;;;;5098353;28;19920;-86
2021/10/29 05:38:11;;;;;;;;;;;;;;;;;;5098277;28;19912;-86
2021/10/29 05:40:36;;;;;;;;;;;;;;;;;;5096912;28;19916;-86
2021/10/29 05:43:02;;;;;;;;;;;;;;;;;;5098752;28;19913;-84
2021/10/29 05:45:27;;;;;;;;;;;;;;;;;;5100085;28;19923;-87
2021/10/29 05:47:53;;;;;;;;;;;;;;;;;;5101875;28;20292;-87
2021/10/29 05:50:18;;;;;;;;;;;;;;;;;;5099721;28;19931;-85
2021/10/29 05:52:45;;;;;;;;;;;;;;;;;;5100330;28;19920;-88
2021/10/29 05:55:17;;;;;;;;;;;;;;;;;;5095577;28;20410;-85
2021/10/29 05:57:44;;;;;;;;;;;;;;;;;;5102958;28;20358;-85
2021/10/29 06:00:10;;;;;;;;;;;;;;;;;;5106158;28;19912;-84
2021/10/29 06:02:36;;;;;;;;;;;;;;;;;;5110656;28;19912;-86
2021/10/29 06:05:01;;;;;;;;;;;;;;;;;;5120450;28;19900;-85
2021/10/29 06:07:30;;;;;;;;;;;;;;;;;;5119876;28;19911;-84
2021/10/29 06:09:55;;;;;;;;;;;;;;;;;;5110296;28;19938;-85
2021/10/29 06:12:20;;;;;;;;;;;;;;;;;;5103538;28;19912;-86
2021/10/29 06:14:47;;;;;;;;;;;;;;;;;;5102864;28;19971;-87
2021/10/29 06:17:17;;;;;;;;;;;;;;;;;;5101467;28;19927;-87
2021/10/29 06:19:42;;;;;;;;;;;;;;;;;;5101025;28;19920;-86
2021/10/29 06:22:17;;;;;;;;;;;;;;;;;;5100018;28;19983;-87
2021/10/29 06:24:46;;;;;;;;;;;;;;;;;;5101428;28;19912;-87
2021/10/29 06:29:57;;;;;;;;;;;;;;;;;;5070173;28;20329;-87
2021/10/29 06:32:23;;;;;;;;;;;;;;;;;;5102654;28;19916;-84
2021/10/29 06:34:48;;;;;;;;;;;;;;;;;;5105028;28;19912;-86
2021/10/29 06:37:17;;;;;;;;;;;;;;;;;;5107042;28;19916;-89
2021/10/29 06:39:44;;;;;;;;;;;;;;;;;;5105021;28;19923;-88
2021/10/29 06:42:15;;;;;;;;;;;;;;;;;;5104640;28;19912;-87
2021/10/29 07:00:18;;;;;;;;;;;;;;;;;;5099862;28;19912;-87
2021/10/29 07:11:31;;;;;;;;;;;;;;;;;;5111081;28;19923;-86
2021/10/29 07:41:26;;;;;;;;;;;;;;;;;;5016885;28;19933;-89
2021/10/29 07:44:01;;;;;;;;;;;;;;;;;;5016927;28;19913;-85
2021/10/29 07:46:29;;;;;;;;;;;;;;;;;;5059980;28;19912;-87
2021/10/29 07:48:55;;;;;;;;;;;;;;;;;;5098284;28;19919;-86
2021/10/29 07:51:20;;;;;;;;;;;;;;;;;;5097057;28;19920;-85
2021/10/29 07:53:46;;;;;;;;;;;;;;;;;;5098322;28;20006;-85
2021/10/29 07:56:11;;;;;;;;;;;;;;;;;;5103504;28;19943;-87
2021/10/29 07:58:37;;;;;;;;;;;;;;;;;;5102764;28;19920;-87
2021/10/29 08:01:03;;;;;;;;;;;;;;;;;;5100605;28;20401;-87
2021/10/29 08:03:28;;;;;;;;;;;;;;;;;;5100059;28;20322;-86
2021/10/29 08:05:54;;;;;;;;;;;;;;;;;;5096883;28;19912;-85
2021/10/29 08:08:20;;;;;;;;;;;;;;;;;;5097488;28;19923;-89
2021/10/29 08:10:46;;;;;;;;;;;;;;;;;;5096957;28;19912;-87
2021/10/29 08:13:11;;;;;;;;;;;;;;;;;;5097662;28;19919;-86
2021/10/29 08:15:37;;;;;;;;;;;;;;;;;;5097766;28;19916;-90
2021/10/29 08:18:04;;;;;;;;;;;;;;;;;;5097676;28;19912;-86
2021/10/29 08:20:30;;;;;;;;;;;;;;;;;;5096400;28;19922;-86
2021/10/29 08:22:55;;;;;;;;;;;;;;;;;;5096360;28;20006;-86
2021/10/29 08:25:20;;;;;;;;;;;;;;;;;;5096765;28;19966;-84
2021/10/29 08:27:46;;;;;;;;;;;;;;;;;;5096244;28;19955;-85
2021/10/29 08:30:11;;;;;;;;;;;;;;;;;;5095746;28;19912;-85
2021/10/29 08:32:37;;;;;;;;;;;;;;;;;;5096021;28;19912;-85
2021/10/29 08:35:03;;;;;;;;;;;;;;;;;;5095850;28;20302;-85
2021/10/29 08:37:31;;;;;;;;;;;;;;;;;;5096004;28;19993;-84
2021/10/29 08:39:56;;;;;;;;;;;;;;;;;;5096643;28;19923;-85
2021/10/29 08:42:22;;;;;;;;;;;;;;;;;;5098845;28;19912;-86
2021/10/29 08:44:47;;;;;;;;;;;;;;;;;;5098802;28;20292;-85
2021/10/29 08:47:14;;;;;;;;;;;;;;;;;;5099876;28;20273;-87
2021/10/29 08:49:40;;;;;;;;;;;;;;;;;;5099067;28;20325;-87
2021/10/29 08:52:06;;;;;;;;;;;;;;;;;;5097180;28;20357;-84
2021/10/29 08:54:32;;;;;;;;;;;;;;;;;;5097860;28;19912;-84
2021/10/29 08:56:59;;;;;;;;;;;;;;;;;;5097175;28;19916;-84
2021/10/29 08:59:30;;;;;;;;;;;;;;;;;;5099411;28;19947;-84
2021/10/29 09:05:20;;;;;;;;;;;;;;;;;;5101212;28;20260;-83
2021/10/29 09:07:31;;;;;;;;;;;;;;;;;;5096627;28;20341;-85
2021/10/29 09:32:07;;;;;;;;;;;;;;;;;;5058128;28;19924;-86
2021/10/29 09:34:32;;;;;;;;;;;;;;;;;;5093202;28;19924;-85
2021/10/29 09:36:58;;;;;;;;;;;;;;;;;;5101829;28;19916;-86
2021/10/29 09:39:24;;;;;;;;;;;;;;;;;;5099578;28;19947;-85
2021/10/29 09:42:07;;;;;;;;;;;;;;;;;;5100121;28;19953;-86
2021/10/29 09:44:42;;;;;;;;;;;;;;;;;;5100740;28;19916;-86
2021/10/29 09:47:07;;;;;;;;;;;;;;;;;;5100624;28;19912;-85
2021/10/29 09:50:03;;;;;;;;;;;;;;;;;;5099260;28;20007;-84
2021/10/29 09:52:37;;;;;;;;;;;;;;;;;;5099936;28;19958;-88
2021/10/29 09:57:30;;;;;;;;;;;;;;;;;;5100520;28;19923;-85
2021/10/29 09:59:56;;;;;;;;;;;;;;;;;;5099639;28;19920;-85
2021/10/29 10:02:23;;;;;;;;;;;;;;;;;;5100895;28;19923;-85
2021/10/29 10:04:49;;;;;;;;;;;;;;;;;;5100310;28;19939;-87
2021/10/29 10:07:15;;;;;;;;;;;;;;;;;;5102614;28;19923;-83
2021/10/29 10:09:42;;;;;;;;;;;;;;;;;;5113359;28;19896;-84
2021/10/29 10:12:08;;;;;;;;;;;;;;;;;;5121683;28;19920;-86
2021/10/29 10:14:33;;;;;;;;;;;;;;;;;;5117992;28;19930;-86
2021/10/29 10:16:58;;;;;;;;;;;;;;;;;;5101117;28;19959;-86
2021/10/29 10:19:25;;;;;;;;;;;;;;;;;;5098465;28;19959;-85
2021/10/29 10:21:54;;;;;;;;;;;;;;;;;;5098081;28;19912;-86
2021/10/29 10:24:24;;;;;;;;;;;;;;;;;;5098420;28;19959;-88
2021/10/29 10:29:53;;;;;;;;;;;;;;;;;;5099790;28;19935;-86
2021/10/29 10:48:44;;;;;;;;;;;;;;;;;;5099172;28;19912;-88
2021/10/29 10:54:01;;;;;;;;;;;;;;;;;;5102863;28;19912;-83
2021/10/29 10:56:52;;;;;;;;;;;;;;;;;;5106513;28;19924;-89
2021/10/29 11:10:56;;;;;;;;;;;;;;;;;;5100671;28;19998;-86
2021/10/29 11:13:21;;;;;;;;;;;;;;;;;;5106378;28;19991;-86
2021/10/29 11:16:02;;;;;;;;;;;;;;;;;;5115198;28;19927;-84
2021/10/29 11:18:30;;;;;;;;;;;;;;;;;;5104728;28;19922;-83
2021/10/29 11:21:08;;;;;;;;;;;;;;;;;;5101649;28;19966;-86
2021/10/29 11:23:34;;;;;;;;;;;;;;;;;;5102079;28;19955;-83
2021/10/29 11:26:03;;;;;;;;;;;;;;;;;;5105066;28;20045;-84
2021/10/29 11:28:33;;;;;;;;;;;;;;;;;;5106404;28;19924;-81
2021/10/29 11:30:59;;;;;;;;;;;;;;;;;;5105796;28;19924;-83
2021/10/29 11:33:25;;;;;;;;;;;;;;;;;;5104989;28;19912;-82
2021/10/29 11:35:58;;;;;;;;;;;;;;;;;;5100034;28;20265;-84
2021/10/29 11:38:23;;;;;;;;;;;;;;;;;;5099705;28;19923;-83
2021/10/29 11:40:50;;;;;;;;;;;;;;;;;;5098436;28;19991;-82
2021/10/29 11:43:27;;;;;;;;;;;;;;;;;;5097285;28;19912;-85
2021/10/29 11:45:56;;;;;;;;;;;;;;;;;;5098032;28;19912;-84
2021/10/29 11:48:22;;;;;;;;;;;;;;;;;;5097583;28;19966;-85
2021/10/29 11:51:01;;;;;;;;;;;;;;;;;;5096697;28;20358;-82
2021/10/29 11:53:27;;;;;;;;;;;;;;;;;;5097026;28;20066;-88
2021/10/29 11:55:59;;;;;;;;;;;;;;;;;;5097112;28;19985;-85
2021/10/29 11:58:41;;;;;;;;;;;;;;;;;;5097424;28;20198;-86
2021/10/29 12:01:14;;;;;;;;;;;;;;;;;;5097606;28;19920;-86
2021/10/29 12:09:21;;;;;;;;;;;;;;;;;;5098759;28;19912;-86
2021/10/29 12:11:53;;;;;;;;;;;;;;;;;;5097939;28;19913;-84
2021/10/29 12:14:18;;;;;;;;;;;;;;;;;;5098992;28;20007;-84
2021/10/29 12:16:44;;;;;;;;;;;;;;;;;;5098639;28;19976;-86
2021/10/29 12:19:09;;;;;;;;;;;;;;;;;;5099200;28;19922;-87
2021/10/29 12:21:41;;;;;;;;;;;;;;;;;;5098538;28;20022;-89
2021/10/29 12:24:11;;;;;;;;;;;;;;;;;;5099783;28;19912;-84
2021/10/29 12:26:40;;;;;;;;;;;;;;;;;;5098742;28;19916;-86
2021/10/29 12:29:16;;;;;;;;;;;;;;;;;;5097763;28;19962;-82
2021/10/29 12:32:25;;;;;;;;;;;;;;;;;;5097224;28;19916;-82
2021/10/29 12:37:36;;;;;;;;;;;;;;;;;;5098150;28;19987;-84
2021/10/29 12:54:32;;;;;;;;;;;;;;;;;;5097298;28;19931;-88
2021/10/29 13:02:23;;;;;;;;;;;;;;;;;;5097012;28;19923;-85
2021/10/29 13:04:53;;;;;;;;;;;;;;;;;;5096800;28;19912;-87
2021/10/29 13:07:25;;;;;;;;;;;;;;;;;;5096798;28;20368;-86
2021/10/29 13:09:50;;;;;;;;;;;;;;;;;;5097269;28;19912;-88
2021/10/29 13:12:29;;;;;;;;;;;;;;;;;;5097159;28;20338;-87
2021/10/29 13:14:59;;;;;;;;;;;;;;;;;;5097372;28;20001;-88
2021/10/29 13:17:38;;;;;;;;;;;;;;;;;;5095700;28;20015;-86
2021/10/29 13:25:22;;;;;;;;;;;;;;;;;;5096390;28;20298;-85
2021/10/29 13:28:15;;;;;;;;;;;;;;;;;;5096767;28;19922;-89
2021/10/29 13:36:19;;;;;;;;;;;;;;;;;;5097220;28;19927;-87
2021/10/29 13:53:11;;;;;;;;;;;;;;;;;;5098185;28;19977;-86
2021/10/29 14:16:59;;;;;;;;;;;;;;;;;;5099370;28;19930;-83
2021/10/29 14:35:25;;;;;;;;;;;;;;;;;;5101446;28;20433;-83
2021/10/29 14:38:02;;;;;;;;;;;;;;;;;;5100874;28;20339;-83
2021/10/29 14:40:49;;;;;;;;;;;;;;;;;;5100114;28;19912;-84
2021/10/29 14:43:23;;;;;;;;;;;;;;;;;;5100021;28;19972;-82
2021/10/29 14:48:27;;;;;;;;;;;;;;;;;;5102767;28;19912;-85
2021/10/29 15:14:45;;;;;;;;;;;;;;;;;;5101576;28;20015;-89
2021/10/29 15:27:26;;;;;;;;;;;;;;;;;;5038160;28;19924;-85
2021/10/29 15:32:37;;;;;;;;;;;;;;;;;;5103294;28;19922;-84
2021/10/29 15:43:36;;;;;;;;;;;;;;;;;;5105194;28;20362;-86
2021/10/29 15:51:41;;;;;;;;;;;;;;;;;;5099394;28;19939;-85
2021/10/29 15:54:09;;;;;;;;;;;;;;;;;;5098529;28;20006;-85
2021/10/29 15:56:43;;;;;;;;;;;;;;;;;;5098993;28;20309;-84
2021/10/29 16:17:49;;;;;;;;;;;;;;;;;;5097221;28;19927;-87
2021/10/29 16:20:14;;;;;;;;;;;;;;;;;;5096866;28;19915;-86
2021/10/29 16:22:40;;;;;;;;;;;;;;;;;;5097430;28;19912;-86
2021/10/29 16:25:17;;;;;;;;;;;;;;;;;;5097883;28;20373;-84
2021/10/29 16:30:15;;;;;;;;;;;;;;;;;;5097203;28;19974;-83
2021/10/29 16:35:24;;;;;;;;;;;;;;;;;;5097647;28;19920;-87
2021/10/29 16:37:54;;;;;;;;;;;;;;;;;;5097401;28;19952;-87
2021/10/29 16:40:20;;;;;;;;;;;;;;;;;;5098388;28;19912;-85
2021/10/29 16:42:45;;;;;;;;;;;;;;;;;;5095273;28;19923;-86
2021/10/29 16:45:13;;;;;;;;;;;;;;;;;;5094873;28;19912;-83
2021/10/29 16:47:41;;;;;;;;;;;;;;;;;;5097233;28;19919;-86
2021/10/29 16:50:12;;;;;;;;;;;;;;;;;;5098376;28;19920;-86
2021/10/29 16:52:37;;;;;;;;;;;;;;;;;;5097340;28;19927;-87
2021/10/29 16:55:03;;;;;;;;;;;;;;;;;;5096045;28;20306;-87
2021/10/29 16:57:28;;;;;;;;;;;;;;;;;;5096750;28;20369;-88
2021/10/29 16:59:54;;;;;;;;;;;;;;;;;;5098306;28;20070;-87
2021/10/29 17:02:19;;;;;;;;;;;;;;;;;;5099410;28;19912;-87
2021/10/29 17:04:45;;;;;;;;;;;;;;;;;;5096823;28;19957;-90
2021/10/29 17:07:10;;;;;;;;;;;;;;;;;;5097458;28;20279;-86
2021/10/29 17:09:35;;;;;;;;;;;;;;;;;;5097689;28;19912;-87
2021/10/29 17:12:01;;;;;;;;;;;;;;;;;;5097424;28;19912;-88
2021/10/29 17:14:27;;;;;;;;;;;;;;;;;;5096269;28;19915;-88
2021/10/29 17:16:55;;;;;;;;;;;;;;;;;;5098261;28;19920;-87
2021/10/29 17:19:21;;;;;;;;;;;;;;;;;;5099001;28;20020;-86
2021/10/29 17:21:47;;;;;;;;;;;;;;;;;;5096923;28;19966;-87
2021/10/29 17:24:12;;;;;;;;;;;;;;;;;;5097644;28;19986;-84
2021/10/29 17:26:38;;;;;;;;;;;;;;;;;;5099261;28;19955;-84
2021/10/29 17:29:03;;;;;;;;;;;;;;;;;;5097277;28;19962;-85
2021/10/29 17:31:28;;;;;;;;;;;;;;;;;;5096725;28;20361;-86
2021/10/29 17:33:54;;;;;;;;;;;;;;;;;;5098000;28;20018;-84
2021/10/29 17:36:21;;;;;;;;;;;;;;;;;;5098836;28;19916;-88
2021/10/29 17:38:46;;;;;;;;;;;;;;;;;;5101084;28;19923;-86
2021/10/29 17:41:11;;;;;;;;;;;;;;;;;;5102402;28;19912;-88
2021/10/29 17:43:37;;;;;;;;;;;;;;;;;;5100991;28;19916;-88
2021/10/29 17:46:04;;;;;;;;;;;;;;;;;;5101760;28;20328;-91
2021/10/29 17:48:30;;;;;;;;;;;;;;;;;;5102105;28;20407;-88
2021/10/29 17:50:55;;;;;;;;;;;;;;;;;;5102523;28;19920;-85
2021/10/29 17:53:22;;;;;;;;;;;;;;;;;;5105539;28;19972;-87
2021/10/29 17:55:48;;;;;;;;;;;;;;;;;;5101099;28;19974;-85
2021/10/29 17:58:13;;;;;;;;;;;;;;;;;;5101025;28;20357;-89
2021/10/29 18:00:40;;;;;;;;;;;;;;;;;;5100546;28;19912;-86
2021/10/29 18:03:08;;;;;;;;;;;;;;;;;;5100686;28;19912;-88
2021/10/29 18:05:33;;;;;;;;;;;;;;;;;;5099719;28;19916;-88
2021/10/29 18:08:04;;;;;;;;;;;;;;;;;;5099944;28;19919;-87
2021/10/29 18:10:31;;;;;;;;;;;;;;;;;;5101257;28;19912;-85
2021/10/29 18:12:57;;;;;;;;;;;;;;;;;;5104537;28;19912;-86
2021/10/29 18:15:22;;;;;;;;;;;;;;;;;;5112222;28;19923;-87
2021/10/29 18:17:48;;;;;;;;;;;;;;;;;;5115664;28;19965;-87
2021/10/29 18:20:13;;;;;;;;;;;;;;;;;;5114298;28;19983;-86
2021/10/29 18:22:39;;;;;;;;;;;;;;;;;;5112867;28;19922;-86
2021/10/29 18:25:04;;;;;;;;;;;;;;;;;;5111057;28;19916;-86
2021/10/29 18:27:30;;;;;;;;;;;;;;;;;;5110543;28;19912;-87
2021/10/29 18:29:57;;;;;;;;;;;;;;;;;;5110897;28;19934;-86
2021/10/29 18:32:22;;;;;;;;;;;;;;;;;;5105407;28;19983;-88
2021/10/29 18:34:49;;;;;;;;;;;;;;;;;;5102731;28;20356;-89
2021/10/29 18:37:17;;;;;;;;;;;;;;;;;;5103020;28;19920;-89
2021/10/29 18:39:46;;;;;;;;;;;;;;;;;;5102325;28;19916;-87
2021/10/29 18:42:11;;;;;;;;;;;;;;;;;;5101250;28;19912;-86
2021/10/29 18:44:37;;;;;;;;;;;;;;;;;;5103368;28;19972;-88
2021/10/29 18:47:03;;;;;;;;;;;;;;;;;;5103930;28;19912;-91
2021/10/29 18:49:28;;;;;;;;;;;;;;;;;;5103840;28;19923;-89
2021/10/29 18:51:54;;;;;;;;;;;;;;;;;;5108057;28;19916;-87
2021/10/29 18:54:20;;;;;;;;;;;;;;;;;;5111772;28;19912;-84
2021/10/29 18:56:45;;;;;;;;;;;;;;;;;;5109388;28;19995;-87
2021/10/29 18:59:10;;;;;;;;;;;;;;;;;;5109958;28;19955;-87
2021/10/29 19:01:36;;;;;;;;;;;;;;;;;;5105782;28;19923;-89
2021/10/29 19:04:02;;;;;;;;;;;;;;;;;;5111590;28;19948;-90
2021/10/29 19:06:32;;;;;;;;;;;;;;;;;;5115412;28;19920;-91
2021/10/29 19:08:58;;;;;;;;;;;;;;;;;;5107418;28;19981;-88
2021/10/29 19:11:27;;;;;;;;;;;;;;;;;;5102295;28;19920;-89
2021/10/29 19:13:54;;;;;;;;;;;;;;;;;;5112071;28;19923;-85
2021/10/29 19:16:20;;;;;;;;;;;;;;;;;;5114291;28;19916;-90
2021/10/29 19:18:48;;;;;;;;;;;;;;;;;;5117412;28;19911;-89
2021/10/29 19:21:19;;;;;;;;;;;;;;;;;;5115709;28;19919;-90
2021/10/29 19:23:44;;;;;;;;;;;;;;;;;;5112955;28;19939;-87
2021/10/29 19:27:05;;;;;;;;;;;;;;;;;;5108317;28;19957;-87
2021/10/29 19:29:15;;;;;;;;;;;;;;;;;;5097534;28;19916;-90
2021/10/29 19:31:40;;;;;;;;;;;;;;;;;;5107074;28;19912;-88
2021/10/29 19:34:06;;;;;;;;;;;;;;;;;;5102051;28;19923;-86
2021/10/29 19:39:12;;;;;;;;;;;;;;;;;;5107144;28;19934;-90
2021/10/29 19:41:38;;;;;;;;;;;;;;;;;;5101873;28;19916;-88
2021/10/29 19:44:04;;;;;;;;;;;;;;;;;;5101981;28;19920;-88
2021/10/29 19:46:30;;;;;;;;;;;;;;;;;;5097371;28;20255;-85
2021/10/29 19:48:55;;;;;;;;;;;;;;;;;;5103247;28;19916;-90
2021/10/29 19:51:20;;;;;;;;;;;;;;;;;;5102352;28;20334;-88
2021/10/29 19:53:47;;;;;;;;;;;;;;;;;;5098991;28;19968;-85
2021/10/29 19:56:12;;;;;;;;;;;;;;;;;;5099124;28;19963;-86
2021/10/29 19:58:38;;;;;;;;;;;;;;;;;;5099461;28;19920;-85
2021/10/29 20:01:03;;;;;;;;;;;;;;;;;;5105214;28;19955;-88
2021/10/29 20:03:30;;;;;;;;;;;;;;;;;;5105820;28;19998;-86
2021/10/29 20:05:55;;;;;;;;;;;;;;;;;;5106228;28;19927;-86
2021/10/29 20:08:20;;;;;;;;;;;;;;;;;;5105585;28;20334;-85
2021/10/29 20:10:46;;;;;;;;;;;;;;;;;;5108063;28;20382;-83
2021/10/29 20:13:11;;;;;;;;;;;;;;;;;;5104298;28;19916;-82
2021/10/29 20:15:37;;;;;;;;;;;;;;;;;;5106607;28;19912;-81
2021/10/29 20:18:05;;;;;;;;;;;;;;;;;;5099133;28;19916;-86
2021/10/29 20:20:32;;;;;;;;;;;;;;;;;;5099068;28;19920;-81
2021/10/29 20:22:58;;;;;;;;;;;;;;;;;;5096068;28;19912;-87
2021/10/29 20:25:23;;;;;;;;;;;;;;;;;;5098144;28;19922;-85
2021/10/29 20:27:48;;;;;;;;;;;;;;;;;;5097386;28;20245;-88
2021/10/29 20:30:14;;;;;;;;;;;;;;;;;;5098981;28;19980;-90
2021/10/29 20:32:40;;;;;;;;;;;;;;;;;;5098136;28;20246;-88
2021/10/29 20:35:07;;;;;;;;;;;;;;;;;;5099967;28;19912;-88
2021/10/29 20:37:32;;;;;;;;;;;;;;;;;;5102062;28;19923;-87
2021/10/29 20:39:57;;;;;;;;;;;;;;;;;;5103338;28;19912;-86
2021/10/29 20:42:23;;;;;;;;;;;;;;;;;;5099179;28;19986;-85
2021/10/29 20:44:48;;;;;;;;;;;;;;;;;;5098774;28;19919;-87
2021/10/29 20:47:13;;;;;;;;;;;;;;;;;;5096871;28;19912;-88
2021/10/29 20:49:42;;;;;;;;;;;;;;;;;;5099350;28;19920;-86
2021/10/29 20:52:08;;;;;;;;;;;;;;;;;;5102892;28;19912;-86
2021/10/29 20:54:33;;;;;;;;;;;;;;;;;;5101590;28;19965;-86
2021/10/29 20:56:59;;;;;;;;;;;;;;;;;;5102796;28;19923;-86
2021/10/29 20:59:24;;;;;;;;;;;;;;;;;;5103227;28;20028;-88
2021/10/29 21:01:49;;;;;;;;;;;;;;;;;;5103601;28;20258;-89
2021/10/29 21:04:15;;;;;;;;;;;;;;;;;;5103369;28;19924;-86
2021/10/29 21:06:40;;;;;;;;;;;;;;;;;;5103446;28;19912;-85
2021/10/29 21:09:06;;;;;;;;;;;;;;;;;;5101601;28;19912;-86
2021/10/29 21:11:31;;;;;;;;;;;;;;;;;;5101504;28;19912;-86
2021/10/29 21:13:57;;;;;;;;;;;;;;;;;;5101671;28;19976;-86
2021/10/29 21:16:22;;;;;;;;;;;;;;;;;;5101572;28;19916;-88
2021/10/29 21:18:47;;;;;;;;;;;;;;;;;;5100937;28;19916;-88
2021/10/29 21:21:13;;;;;;;;;;;;;;;;;;5099184;28;19912;-87
2021/10/29 21:23:41;;;;;;;;;;;;;;;;;;5096483;28;19912;-86
2021/10/29 21:26:07;;;;;;;;;;;;;;;;;;5097434;28;19919;-83
2021/10/29 21:28:33;;;;;;;;;;;;;;;;;;5100719;28;20315;-83
2021/10/29 21:30:59;;;;;;;;;;;;;;;;;;5101911;28;19912;-88
2021/10/29 21:33:24;;;;;;;;;;;;;;;;;;5100693;28;19950;-83
2021/10/29 21:35:49;;;;;;;;;;;;;;;;;;5102142;28;19912;-85
2021/10/29 21:38:15;;;;;;;;;;;;;;;;;;5101055;28;20384;-89